Balko, Oklahoma
Current Conditions -  °F | °C
As of 11:55 AM on Saturday 25 Oct 2014 (Local Time) from KPYX Reporting Station
Clear Clear  
Wind Chill: 78°   Ceiling: Unl
Heat Index: 79°   Visibility: 10mi
Dew Point: 51°   Wind: 8mph
Humidity: 39%   Direction: 210°SSW
Pressure: 30.13"   Gusts: NA
Location:  36.63°N, 100.69°W
Report Text: KPYX 251655Z AUTO 21007KT 10SM CLR 26/10 A3013 RMK AO2 T02550104
Loading
Personal Weather Stations






























Interactive Weather Map
Tropical Storm Tracking
New forecast layout! Learn more

10-Day Weather Forecast

Advertisements
Track Severe Weather on mobile